Time;durP1;ratioP1;P1;durP2;ratioP2;P2;SDS_P1;SDS_P2;PMS_P1;PMS_P2;Temp;Humidity;BMP_temperature;BMP_pressure;BME280_temperature;BME280_humidity;BME280_pressure;Samples;Min_cycle;Max_cycle;Signal;HPM_P1;HPM_P2
2022/09/26 00:01:31;;;;;;;2.80;1.67;;;;;;;10.78;88.00;99934.22;5058469;28;20207;-81
2022/09/26 00:04:00;;;;;;;2.07;1.70;;;;;;;10.74;87.87;99923.00;5058748;28;20234;-81
2022/09/26 00:06:28;;;;;;;2.93;1.90;;;;;;;10.69;88.07;99919.69;5058675;28;20293;-81
2022/09/26 00:08:56;;;;;;;2.47;1.70;;;;;;;10.68;88.15;99918.84;5058752;28;20273;-81
2022/09/26 00:11:24;;;;;;;3.17;1.80;;;;;;;10.69;87.88;99927.50;5058654;28;20231;-81
2022/09/26 00:13:53;;;;;;;6.53;2.17;;;;;;;10.65;88.19;99913.69;5059159;28;20677;-81
2022/09/26 00:16:22;;;;;;;2.77;1.83;;;;;;;10.63;88.15;99912.88;5058769;28;20851;-81
2022/09/26 00:18:49;;;;;;;2.00;1.60;;;;;;;10.63;88.43;99906.81;5059840;28;20203;-81
2022/09/26 00:21:16;;;;;;;2.40;1.90;;;;;;;10.61;88.38;99899.00;5061529;28;20203;-80
2022/09/26 00:23:44;;;;;;;2.70;1.67;;;;;;;10.63;88.47;99897.22;5071320;28;20239;-80
2022/09/26 00:26:11;;;;;;;1.90;1.70;;;;;;;10.59;88.62;99890.38;5071079;28;20280;-80
2022/09/26 00:28:38;;;;;;;2.87;1.70;;;;;;;10.55;88.63;99885.28;5071797;28;20215;-80
2022/09/26 00:31:05;;;;;;;3.47;1.73;;;;;;;10.52;88.50;99880.97;5062721;28;20212;-79
2022/09/26 00:33:33;;;;;;;1.50;1.40;;;;;;;10.51;88.56;99874.91;5063430;28;20202;-79
2022/09/26 00:36:00;;;;;;;2.43;1.57;;;;;;;10.49;88.75;99865.44;5060109;28;20229;-80
2022/09/26 00:38:26;;;;;;;2.93;1.40;;;;;;;10.45;88.76;99855.97;5056812;28;20734;-80
2022/09/26 00:40:52;;;;;;;4.60;1.50;;;;;;;10.42;88.85;99845.63;5056260;28;20691;-79
2022/09/26 00:43:28;;;;;;;2.50;1.60;;;;;;;10.45;89.00;99846.38;5056976;28;20212;-79
2022/09/26 00:45:57;;;;;;;2.23;1.43;;;;;;;10.46;89.08;99839.41;5056364;28;20222;-79
2022/09/26 00:48:24;;;;;;;2.00;1.67;;;;;;;10.42;89.28;99840.41;5056725;28;20204;-80
2022/09/26 00:50:52;;;;;;;2.67;1.80;;;;;;;10.47;89.24;99830.69;5056100;28;20211;-79
2022/09/26 00:53:23;;;;;;;4.10;2.03;;;;;;;10.47;89.21;99823.72;5056989;28;20204;-80
2022/09/26 00:55:54;;;;;;;2.23;1.70;;;;;;;10.47;89.58;99808.06;5056825;28;20231;-80
2022/09/26 00:58:24;;;;;;;2.17;1.50;;;;;;;10.49;89.04;99815.84;5056321;28;20190;-79
2022/09/26 01:00:51;;;;;;;2.30;1.40;;;;;;;10.47;89.27;99813.28;5056654;28;20660;-79
2022/09/26 01:03:20;;;;;;;2.80;1.60;;;;;;;10.49;88.99;99814.09;5056541;28;20210;-80
2022/09/26 01:05:47;;;;;;;4.37;1.60;;;;;;;10.54;88.97;99816.56;5055412;28;20727;-80
2022/09/26 01:08:21;;;;;;;3.17;1.50;;;;;;;10.51;89.46;99803.63;5056686;28;20262;-79
2022/09/26 01:10:48;;;;;;;2.10;1.63;;;;;;;10.51;89.36;99807.06;5057164;28;20207;-80
2022/09/26 01:13:14;;;;;;;2.20;1.60;;;;;;;10.50;89.37;99792.34;5057344;28;20226;-80
2022/09/26 01:15:41;;;;;;;2.73;1.77;;;;;;;10.52;89.37;99787.91;5060567;28;20285;-80
2022/09/26 01:18:08;;;;;;;1.70;1.57;;;;;;;10.52;88.92;99795.75;5060847;28;20212;-80
2022/09/26 01:20:45;;;;;;;2.37;1.33;;;;;;;10.48;89.75;99780.22;5060263;28;20207;-79
2022/09/26 01:24:00;;;;;;;2.13;1.40;;;;;;;10.48;89.70;99772.38;5060881;28;20194;-80
2022/09/26 01:27:02;;;;;;;3.90;1.70;;;;;;;10.48;89.76;99764.56;5060636;28;20202;-80
2022/09/26 01:30:06;;;;;;;3.70;1.50;;;;;;;10.51;89.77;99752.28;5060338;28;20212;-79
2022/09/26 01:32:56;;;;;;;2.77;1.70;;;;;;;10.52;89.77;99755.72;5058385;28;20211;-79
2022/09/26 01:35:36;;;;;;;2.27;1.70;;;;;;;10.54;89.68;99746.09;5058590;28;20234;-80
2022/09/26 01:38:13;;;;;;;3.00;1.50;;;;;;;10.54;89.97;99746.09;5060577;28;20187;-79
2022/09/26 01:40:45;;;;;;;2.47;1.70;;;;;;;10.52;88.98;99768.78;5059757;28;20211;-80
2022/09/26 01:43:19;;;;;;;3.23;1.87;;;;;;;10.57;89.57;99766.91;5059958;28;20664;-80
2022/09/26 01:45:52;;;;;;;1.87;1.33;;;;;;;10.54;89.74;99756.53;5060580;28;20228;-80
2022/09/26 01:48:25;;;;;;;1.60;1.50;;;;;;;10.58;88.84;99776.41;5060877;28;20200;-79
2022/09/26 01:50:55;;;;;;;2.77;1.40;;;;;;;10.65;89.10;99766.66;5060588;28;20252;-80
2022/09/26 01:53:26;;;;;;;2.63;1.57;;;;;;;10.70;88.91;99764.75;5059678;28;20215;-80
2022/09/26 01:55:56;;;;;;;1.57;1.30;;;;;;;10.70;89.35;99765.63;5043890;28;20217;-80
2022/09/26 01:58:28;;;;;;;3.23;1.70;;;;;;;10.67;89.62;99751.81;5060049;28;20208;-80
2022/09/26 02:00:59;;;;;;;2.50;1.60;;;;;;;10.62;88.42;99759.75;5060205;28;20288;-80
2022/09/26 02:03:30;;;;;;;2.43;1.77;;;;;;;10.45;88.15;99790.75;5060725;28;20586;-79
2022/09/26 02:06:00;;;;;;;2.70;1.53;;;;;;;10.56;88.02;99785.22;5059236;28;20636;-80
2022/09/26 02:08:32;;;;;;;5.40;1.53;;;;;;;10.64;87.45;99789.28;5059755;28;20649;-79
2022/09/26 02:11:03;;;;;;;3.10;1.87;;;;;;;10.65;87.23;99811.03;5060351;28;20245;-79
2022/09/26 02:13:33;;;;;;;3.67;1.80;;;;;;;10.66;86.88;99816.22;5060002;28;20829;-80
2022/09/26 02:16:06;;;;;;;2.20;1.77;;;;;;;10.72;86.38;99816.03;5059714;28;20279;-79
2022/09/26 02:18:37;;;;;;;1.80;1.70;;;;;;;10.70;86.17;99838.72;5059720;28;20212;-79
2022/09/26 02:21:09;;;;;;;4.33;2.40;;;;;;;10.65;85.95;99835.38;5059767;28;20615;-80
2022/09/26 02:23:36;;;;;;;5.57;1.87;;;;;;;10.64;86.12;99831.03;5059724;28;20206;-80
2022/09/26 02:26:02;;;;;;;1.83;1.60;;;;;;;10.59;85.68;99832.94;5058265;28;20696;-79
2022/09/26 02:28:29;;;;;;;2.53;1.97;;;;;;;10.64;86.28;99815.38;5059718;28;20239;-80
2022/09/26 02:30:56;;;;;;;5.60;2.30;;;;;;;10.61;86.51;99806.81;5059086;28;20684;-80
2022/09/26 02:33:24;;;;;;;1.80;1.70;;;;;;;10.67;85.95;99806.63;5059313;28;20231;-80
2022/09/26 02:35:56;;;;;;;3.47;1.60;;;;;;;10.68;86.18;99800.50;5059825;28;20788;-80
2022/09/26 02:38:24;;;;;;;5.90;2.20;;;;;;;10.72;85.90;99796.88;5059622;28;20193;-80
2022/09/26 02:40:56;;;;;;;2.13;1.70;;;;;;;10.75;85.70;99801.19;5060048;28;20253;-79
2022/09/26 02:43:35;;;;;;;2.23;1.67;;;;;;;10.78;85.61;99806.31;5059280;28;20290;-80
2022/09/26 02:46:14;;;;;;;3.73;2.40;;;;;;;10.75;84.85;99817.69;5052577;28;20252;-79
2022/09/26 02:48:53;;;;;;;3.93;1.90;;;;;;;10.77;85.14;99823.72;5059264;28;20211;-80
2022/09/26 02:51:46;;;;;;;2.57;1.77;;;;;;;10.71;85.36;99821.31;5058920;28;20212;-79
2022/09/26 02:54:22;;;;;;;3.87;1.80;;;;;;;10.74;85.07;99815.97;5059505;28;20680;-80
2022/09/26 02:57:07;;;;;;;2.70;1.67;;;;;;;10.76;85.32;99802.88;5059667;28;20206;-80
2022/09/26 02:59:41;;;;;;;2.57;1.50;;;;;;;10.59;84.67;99819.91;5059773;28;20207;-80
2022/09/26 03:02:14;;;;;;;2.60;1.40;;;;;;;10.65;84.84;99809.28;5059699;28;20230;-80
2022/09/26 03:04:46;;;;;;;2.43;1.80;;;;;;;10.70;85.18;99799.56;5059849;28;20370;-80
2022/09/26 03:07:18;;;;;;;1.40;1.30;;;;;;;10.70;85.24;99789.13;5059632;28;20192;-80
2022/09/26 03:09:47;;;;;;;3.43;1.87;;;;;;;10.66;84.16;99810.13;5060042;28;20236;-80
2022/09/26 03:12:15;;;;;;;3.13;1.50;;;;;;;10.61;83.87;99815.50;5059692;28;20244;-80
2022/09/26 03:14:44;;;;;;;2.60;1.67;;;;;;;10.67;83.97;99807.47;5059920;28;20226;-80
2022/09/26 03:17:11;;;;;;;2.03;1.53;;;;;;;10.61;84.03;99805.06;5059891;28;20213;-80
2022/09/26 03:19:43;;;;;;;3.33;1.80;;;;;;;10.68;84.52;99790.06;5060072;28;20202;-80
2022/09/26 03:22:11;;;;;;;1.70;1.60;;;;;;;10.66;83.86;99791.84;5059765;28;20194;-80
2022/09/26 03:24:40;;;;;;;4.63;1.40;;;;;;;10.58;83.44;99799.06;5059411;28;20601;-80
2022/09/26 03:27:07;;;;;;;2.17;1.40;;;;;;;10.57;83.69;99797.38;5059182;28;20238;-80
2022/09/26 03:29:34;;;;;;;5.20;1.30;;;;;;;10.55;84.17;99780.91;5059775;28;20753;-81
2022/09/26 03:32:01;;;;;;;1.73;1.43;;;;;;;10.59;83.94;99772.94;5058340;28;20202;-80
2022/09/26 03:34:28;;;;;;;2.23;1.40;;;;;;;10.42;84.44;99769.94;5059015;28;20216;-80
2022/09/26 03:36:54;;;;;;;1.53;1.20;;;;;;;10.48;84.46;99749.75;5058438;28;20675;-80
2022/09/26 03:39:22;;;;;;;1.30;1.13;;;;;;;10.40;84.93;99749.13;5059691;28;20208;-80
2022/09/26 03:41:48;;;;;;;1.50;1.20;;;;;;;10.52;84.26;99747.91;5060025;28;20266;-80
2022/09/26 03:44:16;;;;;;;2.47;1.60;;;;;;;10.50;84.68;99749.69;5059539;28;20259;-80
2022/09/26 03:46:42;;;;;;;2.20;1.30;;;;;;;10.56;84.57;99751.28;5059616;28;20205;-80
2022/09/26 03:49:10;;;;;;;1.97;1.30;;;;;;;10.56;84.07;99751.28;5059080;28;20220;-80
2022/09/26 03:51:37;;;;;;;2.10;1.17;;;;;;;10.52;83.69;99759.22;5058755;28;20211;-80
2022/09/26 03:54:04;;;;;;;3.13;1.40;;;;;;;10.56;83.67;99746.91;5058894;28;20238;-80
2022/09/26 03:56:31;;;;;;;3.90;1.53;;;;;;;10.53;83.33;99760.06;5059268;28;20211;-80
2022/09/26 03:58:58;;;;;;;2.40;1.40;;;;;;;10.51;83.65;99752.28;5059554;28;20206;-79
2022/09/26 04:01:25;;;;;;;2.70;1.10;;;;;;;10.47;83.71;99755.88;5058719;28;20267;-80
2022/09/26 04:03:51;;;;;;;1.93;1.13;;;;;;;10.53;83.96;99744.41;5059522;28;20552;-80
2022/09/26 04:06:19;;;;;;;2.10;1.30;;;;;;;10.52;84.01;99730.50;5058701;28;20228;-81
2022/09/26 04:08:47;;;;;;;6.63;1.50;;;;;;;10.57;84.22;99735.59;5060667;28;20232;-79
2022/09/26 04:11:16;;;;;;;2.03;1.20;;;;;;;10.56;83.69;99739.06;5056800;28;20564;-79
2022/09/26 04:13:43;;;;;;;1.70;1.60;;;;;;;10.58;83.52;99737.28;5057112;28;20235;-79
2022/09/26 04:16:10;;;;;;;1.40;1.30;;;;;;;10.59;83.53;99735.53;5056987;28;20224;-80
2022/09/26 04:18:37;;;;;;;1.93;1.43;;;;;;;10.62;83.35;99733.66;5056444;28;20286;-80
2022/09/26 04:21:05;;;;;;;4.07;1.70;;;;;;;10.57;82.68;99746.03;5056632;28;20611;-79
2022/09/26 04:23:34;;;;;;;1.40;1.30;;;;;;;10.58;83.11;99752.09;5056637;28;20259;-79
2022/09/26 04:26:04;;;;;;;2.23;1.83;;;;;;;10.59;83.35;99725.94;5057164;28;20233;-79
2022/09/26 04:28:30;;;;;;;2.73;1.67;;;;;;;10.62;83.08;99725.84;5056493;28;20245;-79
2022/09/26 04:30:59;;;;;;;1.40;1.30;;;;;;;10.65;83.11;99730.97;5056499;28;20210;-79
2022/09/26 04:33:26;;;;;;;1.57;1.47;;;;;;;10.64;83.02;99725.81;5056517;28;20254;-79
2022/09/26 04:35:52;;;;;;;3.43;1.73;;;;;;;10.62;82.66;99733.66;5056673;28;20285;-80
2022/09/26 04:38:19;;;;;;;3.40;1.70;;;;;;;10.58;82.58;99742.50;5056643;28;20204;-79
2022/09/26 04:40:45;;;;;;;5.03;2.03;;;;;;;10.63;82.91;99731.94;5056638;28;20211;-79
2022/09/26 04:43:12;;;;;;;3.07;1.70;;;;;;;10.63;83.05;99724.09;5056655;28;20199;-79
2022/09/26 04:45:40;;;;;;;1.93;1.70;;;;;;;10.57;82.52;99727.75;5055977;28;20241;-79
2022/09/26 04:48:08;;;;;;;3.57;1.90;;;;;;;10.59;82.82;99719.88;5056600;28;20715;-79
2022/09/26 04:50:35;;;;;;;2.47;1.70;;;;;;;10.58;82.75;99716.41;5056432;28;20213;-79
2022/09/26 04:53:03;;;;;;;3.27;1.73;;;;;;;10.63;82.88;99718.88;5056522;28;20226;-79
2022/09/26 04:55:29;;;;;;;4.47;1.77;;;;;;;10.62;83.08;99701.50;5056268;28;20225;-79
2022/09/26 04:57:55;;;;;;;1.93;1.60;;;;;;;10.63;82.71;99711.06;5057125;28;20238;-80
2022/09/26 05:00:22;;;;;;;2.93;1.80;;;;;;;10.51;82.96;99705.31;5056705;28;20209;-79
2022/09/26 05:02:48;;;;;;;1.80;1.70;;;;;;;10.55;82.93;99695.63;5055915;28;20208;-80
2022/09/26 05:05:16;;;;;;;1.60;1.50;;;;;;;10.52;82.50;99703.53;5056402;28;20251;-80
2022/09/26 05:07:43;;;;;;;3.70;2.00;;;;;;;10.53;82.97;99702.66;5056348;28;20212;-79
2022/09/26 05:10:11;;;;;;;2.10;1.87;;;;;;;10.57;82.60;99699.03;5056238;28;20210;-79
2022/09/26 05:12:38;;;;;;;3.43;1.90;;;;;;;10.53;82.39;99700.88;5056349;28;20235;-79
2022/09/26 05:15:07;;;;;;;2.20;2.00;;;;;;;10.56;82.75;99686.03;5055598;28;20221;-80
2022/09/26 05:17:34;;;;;;;2.57;1.90;;;;;;;10.51;82.90;99670.53;5056729;28;20205;-79
2022/09/26 05:20:01;;;;;;;2.87;2.17;;;;;;;10.55;82.53;99677.38;5056311;28;20204;-79
2022/09/26 05:22:30;;;;;;;2.87;2.07;;;;;;;10.54;82.46;99691.31;5055347;28;20212;-79
2022/09/26 05:27:41;;;;;;;2.80;1.97;;;;;;;10.42;82.95;99661.22;5056029;28;20228;-79
2022/09/26 05:30:08;;;;;;;3.90;2.20;;;;;;;10.45;82.98;99642.88;5055814;28;20689;-79
2022/09/26 05:32:34;;;;;;;2.83;1.90;;;;;;;10.47;82.88;99648.91;5056548;28;20204;-79
2022/09/26 05:35:04;;;;;;;5.70;1.73;;;;;;;10.51;82.79;99645.28;5056346;28;20725;-78
2022/09/26 05:37:32;;;;;;;7.33;1.80;;;;;;;10.51;83.06;99645.28;5056786;28;20213;-81
2022/09/26 05:42:42;;;;;;;1.60;1.47;;;;;;;10.60;82.41;99648.50;5056152;28;20199;-79
2022/09/26 05:45:09;;;;;;;3.03;2.00;;;;;;;10.59;82.29;99659.84;5057024;28;20286;-79
2022/09/26 05:47:36;;;;;;;2.83;2.30;;;;;;;10.63;82.44;99658.84;5056342;28;20207;-79
2022/09/26 05:50:03;;;;;;;2.80;1.77;;;;;;;10.60;82.51;99665.00;5056538;28;20208;-79
2022/09/26 05:52:31;;;;;;;3.13;1.43;;;;;;;10.62;81.86;99665.81;5055318;28;20210;-79
2022/09/26 05:54:58;;;;;;;1.67;1.37;;;;;;;10.51;82.51;99658.34;5056229;28;20254;-79
2022/09/26 05:57:24;;;;;;;2.13;1.73;;;;;;;10.59;82.50;99650.28;5055728;28;20212;-79
2022/09/26 05:59:50;;;;;;;13.47;2.40;;;;;;;10.58;82.26;99653.75;5036701;28;20212;-78
2022/09/26 06:02:17;;;;;;;1.90;1.53;;;;;;;10.63;81.97;99656.25;5056286;28;20234;-79
2022/09/26 06:04:43;;;;;;;3.57;1.60;;;;;;;10.66;82.13;99643.09;5060036;28;20218;-79
2022/09/26 06:07:10;;;;;;;2.43;1.60;;;;;;;10.66;82.08;99645.69;5060428;28;20239;-79
2022/09/26 06:09:38;;;;;;;2.80;1.70;;;;;;;10.71;82.87;99633.38;5060013;28;20301;-79
2022/09/26 06:12:04;;;;;;;1.50;1.40;;;;;;;10.71;83.21;99612.47;5059759;28;20208;-79
2022/09/26 06:14:30;;;;;;;1.83;1.73;;;;;;;10.77;82.70;99617.50;5059275;28;20230;-79
2022/09/26 06:16:57;;;;;;;3.60;1.73;;;;;;;10.82;82.63;99633.00;5059683;28;20238;-79
2022/09/26 06:19:24;;;;;;;3.27;1.67;;;;;;;10.86;81.46;99640.69;5060325;28;20677;-79
2022/09/26 06:21:50;;;;;;;4.13;1.70;;;;;;;10.88;81.69;99645.84;5059657;28;20279;-78
2022/09/26 06:24:19;;;;;;;1.60;1.50;;;;;;;10.91;81.49;99643.16;5060848;28;20231;-78
2022/09/26 06:26:46;;;;;;;2.30;1.40;;;;;;;10.95;81.64;99647.38;5060792;28;20273;-79
2022/09/26 06:29:13;;;;;;;1.97;1.77;;;;;;;10.94;81.26;99653.47;5060345;28;20215;-78
2022/09/26 06:31:39;;;;;;;2.40;1.57;;;;;;;11.01;81.57;99641.09;5060523;28;20202;-79
2022/09/26 06:34:06;;;;;;;1.70;1.60;;;;;;;11.06;81.30;99633.94;5060462;28;20225;-78
2022/09/26 06:36:34;;;;;;;3.80;1.83;;;;;;;11.10;81.13;99646.84;5059276;28;20203;-78
2022/09/26 06:39:01;;;;;;;3.83;1.70;;;;;;;11.10;81.01;99652.06;5059995;28;20215;-78
2022/09/26 06:41:27;;;;;;;1.70;1.60;;;;;;;11.17;82.89;99638.81;5059413;28;20211;-78
2022/09/26 06:43:55;;;;;;;5.17;1.90;;;;;;;11.20;83.38;99569.03;5059369;28;20208;-78
2022/09/26 06:46:22;;;;;;;2.67;1.77;;;;;;;11.22;81.80;99595.06;5059578;28;20230;-79
2022/09/26 06:48:48;;;;;;;2.67;2.00;;;;;;;11.28;83.83;99569.59;5059647;28;20237;-79
2022/09/26 06:51:14;;;;;;;4.43;2.10;;;;;;;11.27;82.60;99540.91;5058409;28;20225;-78
2022/09/26 06:53:41;;;;;;;3.53;1.83;;;;;;;11.41;84.16;99545.63;5058990;28;20223;-78
2022/09/26 06:56:07;;;;;;;3.30;2.40;;;;;;;11.41;82.38;99556.94;5058409;28;20257;-79
2022/09/26 06:58:34;;;;;;;2.47;1.97;;;;;;;11.46;81.69;99580.31;5058141;28;20341;-78
2022/09/26 07:01:02;;;;;;;2.40;1.90;;;;;;;11.49;80.97;99617.59;5057776;28;20204;-78
2022/09/26 07:03:28;;;;;;;3.37;2.30;;;;;;;11.48;80.16;99649.06;5058288;28;20276;-78
2022/09/26 07:05:56;;;;;;;5.83;2.20;;;;;;;11.47;80.38;99663.00;5058619;28;20238;-78
2022/09/26 07:08:23;;;;;;;2.50;2.10;;;;;;;11.52;81.75;99635.81;5058517;28;20210;-79
2022/09/26 07:10:49;;;;;;;2.80;1.70;;;;;;;11.49;81.52;99628.06;5057921;28;20262;-78
2022/09/26 07:13:16;;;;;;;1.70;1.47;;;;;;;11.49;80.92;99630.69;5058884;28;20247;-78
2022/09/26 07:15:45;;;;;;;2.93;1.80;;;;;;;11.46;79.77;99651.72;5059011;28;20250;-79
2022/09/26 07:18:13;;;;;;;2.83;2.13;;;;;;;11.48;79.83;99662.97;5059192;28;20208;-79
2022/09/26 07:20:44;;;;;;;3.57;1.77;;;;;;;11.49;81.05;99648.97;5058672;28;20201;-79
2022/09/26 07:23:11;;;;;;;2.73;1.60;;;;;;;11.39;79.96;99659.81;5057918;28;20670;-79
2022/09/26 07:25:38;;;;;;;2.17;1.97;;;;;;;11.48;80.49;99649.91;5059556;28;20274;-78
2022/09/26 07:28:05;;;;;;;2.93;1.73;;;;;;;11.57;81.08;99621.72;5058898;28;20204;-79
2022/09/26 07:30:32;;;;;;;2.27;1.93;;;;;;;11.63;80.15;99632.78;5058836;28;20482;-81
2022/09/26 07:33:01;;;;;;;3.40;2.33;;;;;;;11.69;79.58;99650.91;5058569;28;20742;-80
2022/09/26 07:35:30;;;;;;;1.90;1.80;;;;;;;11.77;79.27;99647.97;5059112;28;20222;-80
2022/09/26 07:37:57;;;;;;;3.20;1.90;;;;;;;11.75;79.51;99673.34;5057647;28;20206;-77
2022/09/26 07:40:23;;;;;;;2.57;2.23;;;;;;;11.79;79.98;99651.38;5057367;28;20211;-78
2022/09/26 07:42:51;;;;;;;2.53;2.03;;;;;;;11.87;79.46;99662.44;5057046;28;20626;-77
2022/09/26 07:50:09;;;;;;;5.50;2.20;;;;;;;11.87;79.21;99658.97;5056631;28;20306;-77
2022/09/26 07:50:47;;;;;;;4.80;2.50;;;;;;;11.85;77.98;99685.19;5022911;28;20286;-78
2022/09/26 07:53:13;;;;;;;2.83;2.60;;;;;;;11.94;78.77;99688.41;5056343;28;20205;-77
2022/09/26 07:56:04;;;;;;;4.10;3.23;;;;;;;11.98;78.19;99695.22;5056113;28;20226;-77
2022/09/26 07:58:26;;;;;;;3.87;3.30;;;;;;;12.01;77.95;99709.06;5056274;28;20218;-77
2022/09/26 08:00:53;;;;;;;3.43;3.13;;;;;;;11.98;77.76;99724.00;5056690;28;20611;-77
2022/09/26 08:03:19;;;;;;;3.97;3.00;;;;;;;12.10;78.42;99685.16;5056155;28;20203;-77
2022/09/26 08:05:47;;;;;;;3.77;3.47;;;;;;;12.16;77.40;99694.53;5056363;28;20314;-77
2022/09/26 08:08:14;;;;;;;3.03;2.77;;;;;;;12.18;77.36;99713.63;5056338;28;20621;-77
2022/09/26 08:10:43;;;;;;;4.63;2.73;;;;;;;12.15;76.48;99725.97;5056791;28;20269;-78
2022/09/26 08:13:10;;;;;;;3.40;3.10;;;;;;;12.04;76.31;99737.69;5056406;28;20231;-77
2022/09/26 08:15:36;;;;;;;3.43;2.80;;;;;;;12.13;77.17;99712.97;5056538;28;20232;-77
2022/09/26 08:18:03;;;;;;;3.10;2.80;;;;;;;12.21;78.55;99670.81;5056393;28;20211;-77
2022/09/26 08:20:29;;;;;;;3.03;2.73;;;;;;;12.19;77.22;99680.47;5055793;28;20213;-78
2022/09/26 08:22:57;;;;;;;3.37;3.10;;;;;;;12.25;76.68;99698.56;5055391;28;20238;-78
2022/09/26 08:25:24;;;;;;;4.57;3.30;;;;;;;12.36;76.72;99706.03;5055994;28;20288;-78
2022/09/26 08:27:51;;;;;;;6.00;3.53;;;;;;;12.41;76.79;99704.94;5055970;28;20208;-78
2022/09/26 08:30:20;;;;;;;4.30;3.03;;;;;;;12.46;76.90;99686.44;5055652;28;20251;-78
2022/09/26 08:32:52;;;;;;;3.80;2.77;;;;;;;12.36;76.69;99708.63;5055755;28;20769;-78
2022/09/26 08:35:19;;;;;;;3.93;3.50;;;;;;;12.40;77.49;99686.66;5057109;28;20342;-79
2022/09/26 08:37:46;;;;;;;4.50;3.13;;;;;;;12.45;76.85;99687.34;5057908;28;20211;-79
2022/09/26 08:40:14;;;;;;;3.87;3.40;;;;;;;12.46;77.06;99689.03;5057581;28;20754;-79
2022/09/26 08:42:52;;;;;;;3.40;3.10;;;;;;;12.41;75.80;99693.63;5057822;28;20212;-78
2022/09/26 08:48:36;;;;;;;3.63;3.30;;;;;;;12.38;76.05;99699.81;5053808;28;20630;-76
2022/09/26 08:51:12;;;;;;;3.80;3.07;;;;;;;12.55;76.60;99674.72;5051849;28;20211;-76
2022/09/26 08:53:44;;;;;;;4.47;3.00;;;;;;;12.64;76.23;99698.78;5043044;28;20206;-76
2022/09/26 08:56:19;;;;;;;4.53;3.50;;;;;;;12.60;75.09;99728.63;5041568;28;20259;-76
2022/09/26 08:58:50;;;;;;;5.10;2.60;;;;;;;12.75;75.12;99711.47;5042720;28;20687;-77
2022/09/26 09:01:25;;;;;;;8.23;3.47;;;;;;;12.84;75.06;99726.84;5045419;28;20678;-76
2022/09/26 09:03:55;;;;;;;3.80;3.00;;;;;;;12.94;74.26;99740.38;5047819;28;20200;-76
2022/09/26 09:06:22;;;;;;;3.60;3.07;;;;;;;12.97;73.99;99735.03;5039837;28;20266;-77
2022/09/26 09:08:51;;;;;;;3.23;2.93;;;;;;;13.10;75.24;99738.88;5041323;28;20267;-76
2022/09/26 09:11:27;;;;;;;18.60;13.37;;;;;;;13.22;74.16;99723.53;5042545;28;20200;-76
2022/09/26 09:14:08;;;;;;;9.57;6.00;;;;;;;13.31;74.12;99731.91;5042971;28;20222;-77
2022/09/26 09:16:50;;;;;;;4.13;2.80;;;;;;;13.27;72.24;99774.84;5043546;28;20290;-77
2022/09/26 09:19:27;;;;;;;5.07;4.53;;;;;;;13.20;72.09;99824.97;5043434;28;20214;-77
2022/09/26 09:22:17;;;;;;;3.43;2.80;;;;;;;13.26;72.34;99778.41;5042948;28;20200;-77
2022/09/26 09:24:55;;;;;;;3.43;3.00;;;;;;;13.19;72.35;99799.69;5047063;28;20236;-76
2022/09/26 09:27:36;;;;;;;3.20;2.63;;;;;;;13.23;72.17;99793.41;5054063;28;20211;-77
2022/09/26 09:30:10;;;;;;;5.33;3.00;;;;;;;13.22;72.42;99783.81;5054030;28;20207;-76
2022/09/26 09:32:47;;;;;;;2.80;2.43;;;;;;;13.28;72.83;99800.19;5053560;28;20204;-76
2022/09/26 09:35:15;;;;;;;3.53;1.83;;;;;;;13.27;71.92;99785.34;5047028;28;20297;-77
2022/09/26 09:37:47;;;;;;;2.00;1.90;;;;;;;13.23;71.50;99809.13;5047942;28;20195;-77
2022/09/26 09:40:24;;;;;;;3.20;2.40;;;;;;;13.36;71.08;99815.63;5043506;28;20220;-77
2022/09/26 09:42:57;;;;;;;2.13;1.80;;;;;;;13.34;70.30;99832.31;5048039;28;20742;-77
2022/09/26 09:45:29;;;;;;;3.53;2.30;;;;;;;13.40;70.06;99814.59;5046787;28;20224;-77
2022/09/26 09:47:56;;;;;;;2.43;1.90;;;;;;;13.50;70.51;99842.13;5047934;28;20203;-77
2022/09/26 09:50:34;;;;;;;3.00;1.57;;;;;;;13.60;70.26;99855.72;5046200;28;20674;-77
2022/09/26 09:53:13;;;;;;;3.00;1.80;;;;;;;13.54;69.27;99865.59;5048265;28;20204;-77
2022/09/26 09:55:51;;;;;;;2.53;2.00;;;;;;;13.71;69.79;99873.63;5055801;28;20231;-76
2022/09/26 09:58:43;;;;;;;3.37;1.87;;;;;;;13.82;68.19;99863.56;5055531;28;20212;-76
2022/09/26 10:01:16;;;;;;;3.53;2.20;;;;;;;13.94;68.03;99871.84;5055384;28;20209;-77
2022/09/26 10:03:54;;;;;;;2.50;1.90;;;;;;;13.88;67.02;99943.78;5055252;28;20211;-77
2022/09/26 10:06:21;;;;;;;1.77;1.50;;;;;;;13.89;65.64;100009.31;5054257;28;20391;-77
2022/09/26 10:08:49;;;;;;;2.73;1.93;;;;;;;13.95;65.83;99981.97;5055192;28;20211;-77
2022/09/26 10:11:25;;;;;;;2.33;1.30;;;;;;;13.81;64.83;100040.22;5054959;28;20256;-76
2022/09/26 10:13:54;;;;;;;1.40;1.30;;;;;;;13.91;65.62;100032.84;5054988;28;20235;-77
2022/09/26 10:16:20;;;;;;;1.40;1.20;;;;;;;13.97;64.29;100019.50;5055109;28;20506;-76
2022/09/26 10:18:55;;;;;;;2.60;1.73;;;;;;;14.00;64.94;100019.38;5055376;28;20215;-77
2022/09/26 10:21:28;;;;;;;2.07;1.80;;;;;;;13.99;66.51;100001.91;5054453;28;20212;-76
2022/09/26 10:23:54;;;;;;;1.60;1.50;;;;;;;14.18;66.77;99935.56;5055322;28;20699;-77
2022/09/26 10:26:24;;;;;;;1.60;1.30;;;;;;;14.20;64.74;99967.84;5054482;28;20642;-76
2022/09/26 10:28:55;;;;;;;1.50;1.40;;;;;;;14.19;64.05;100005.50;5034700;28;20235;-77
2022/09/26 10:31:23;;;;;;;1.23;1.13;;;;;;;14.13;62.76;99997.88;5034847;28;20242;-76
2022/09/26 10:34:00;;;;;;;1.90;1.27;;;;;;;14.33;63.69;100013.69;5034688;28;20228;-77
2022/09/26 10:36:31;;;;;;;2.63;1.60;;;;;;;14.37;63.71;99996.88;5034945;28;20206;-77
2022/09/26 10:41:45;;;;;;;2.33;1.37;;;;;;;14.15;61.91;100059.88;5038263;28;20709;-77
2022/09/26 10:44:25;;;;;;;1.40;1.30;;;;;;;14.28;64.04;100020.88;5034173;28;20210;-76
2022/09/26 10:46:56;;;;;;;1.50;1.20;;;;;;;14.26;62.30;99985.97;5053630;28;20353;-76
2022/09/26 10:49:29;;;;;;;2.60;1.40;;;;;;;14.32;62.02;99998.84;5073912;28;20247;-76
2022/09/26 10:52:03;;;;;;;5.97;1.60;;;;;;;14.28;62.01;100037.50;5056014;28;20256;-76
2022/09/26 10:54:41;;;;;;;2.00;1.20;;;;;;;14.34;63.07;100028.50;5046282;28;20225;-76
2022/09/26 10:57:17;;;;;;;2.40;1.50;;;;;;;14.04;62.20;100022.75;5049399;28;20210;-76
2022/09/26 10:59:46;;;;;;;1.97;1.50;;;;;;;14.04;63.17;100005.22;5053801;28;20223;-76
2022/09/26 11:02:18;;;;;;;1.47;1.37;;;;;;;14.10;63.99;99985.75;5053298;28;20213;-77
2022/09/26 11:07:34;;;;;;;1.90;1.20;;;;;;;13.99;64.44;99933.69;5053439;28;20288;-76
2022/09/26 11:10:05;;;;;;;1.50;1.40;;;;;;;13.98;65.26;99912.78;5053291;28;20858;-76
2022/09/26 11:12:38;;;;;;;1.70;1.30;;;;;;;13.94;64.61;99912.03;5053564;28;20627;-76
2022/09/26 11:15:09;;;;;;;1.50;1.30;;;;;;;13.93;64.86;99896.34;5053074;28;20240;-76
2022/09/26 11:17:46;;;;;;;2.20;1.60;;;;;;;14.01;63.86;99870.66;5053647;28;20216;-75
2022/09/26 11:20:26;;;;;;;2.93;1.60;;;;;;;14.08;65.15;99859.81;5053308;28;20209;-76
2022/09/26 11:23:05;;;;;;;2.73;1.60;;;;;;;13.99;64.23;99896.94;5053569;28;20655;-76
2022/09/26 11:25:47;;;;;;;1.73;1.57;;;;;;;13.94;64.14;99884.97;5047219;28;20277;-76
2022/09/26 11:28:22;;;;;;;2.33;1.50;;;;;;;14.07;66.04;99857.25;5053017;28;20204;-76
2022/09/26 11:30:55;;;;;;;2.07;1.50;;;;;;;14.02;64.63;99854.84;5052848;28;20215;-75
2022/09/26 11:33:23;;;;;;;3.13;1.30;;;;;;;14.04;64.11;99834.63;5053204;28;20282;-76
2022/09/26 11:36:02;;;;;;;2.30;1.40;;;;;;;14.25;65.73;99826.72;5052858;28;20246;-77
2022/09/26 11:38:38;;;;;;;2.20;1.57;;;;;;;14.21;64.56;99841.78;5052857;28;20699;-76
2022/09/26 11:41:35;;;;;;;2.23;1.50;;;;;;;14.36;65.65;99844.66;5052635;28;20698;-76
2022/09/26 11:44:16;;;;;;;2.87;1.40;;;;;;;14.06;63.28;99880.03;5053023;28;20217;-76
2022/09/26 11:46:54;;;;;;;1.47;1.30;;;;;;;14.19;64.05;99867.25;5052586;28;20201;-76
2022/09/26 11:49:48;;;;;;;3.60;1.43;;;;;;;14.43;65.32;99839.06;5052859;28;20296;-76
2022/09/26 11:52:31;;;;;;;1.50;1.40;;;;;;;14.50;63.99;99813.38;5052313;28;20685;-76
2022/09/26 11:55:15;;;;;;;2.53;1.50;;;;;;;14.60;63.99;99842.75;5052503;28;20227;-76
2022/09/26 11:57:50;;;;;;;3.10;1.30;;;;;;;14.55;63.67;99877.06;5052324;28;20353;-76
2022/09/26 12:00:25;;;;;;;3.13;1.20;;;;;;;14.35;61.94;99901.56;5052532;28;20208;-76
2022/09/26 12:03:32;;;;;;;2.93;1.20;;;;;;;14.20;62.98;99865.47;5052118;28;20754;-76
2022/09/26 12:06:01;;;;;;;1.40;1.10;;;;;;;14.28;64.12;99845.00;5052112;28;20232;-76
2022/09/26 12:08:43;;;;;;;1.97;1.20;;;;;;;14.25;65.66;99813.59;5051862;28;20683;-76